createdAt,value
2022-11-05T00:01:07.678Z,79.69
2022-11-05T00:03:53.797Z,79.09
2022-11-05T00:06:39.730Z,79.33
2022-11-05T00:09:29.826Z,79.30
2022-11-05T00:12:24.303Z,78.78
2022-11-05T00:15:10.399Z,78.65
2022-11-05T00:17:38.233Z,78.72
2022-11-05T00:20:07.226Z,79.36
2022-11-05T00:22:59.348Z,79.01
2022-11-05T00:25:28.065Z,78.92
2022-11-05T00:28:01.219Z,78.07
2022-11-05T00:30:29.786Z,78.62
2022-11-05T00:33:04.999Z,79.13
2022-11-05T00:35:32.467Z,78.67
2022-11-05T00:37:59.988Z,78.23
2022-11-05T00:40:27.406Z,79.38
2022-11-05T00:43:13.745Z,79.42
2022-11-05T00:45:41.278Z,79.57
2022-11-05T00:48:27.598Z,78.99
2022-11-05T00:50:55.343Z,79.09
2022-11-05T00:53:22.820Z,79.49
2022-11-05T00:55:50.348Z,79.89
2022-11-05T00:58:20.824Z,79.29
2022-11-05T01:00:54.474Z,79.30
2022-11-05T01:03:32.502Z,79.26
2022-11-05T01:06:10.259Z,79.21
2022-11-05T01:08:38.209Z,79.23
2022-11-05T01:11:33.429Z,79.50
2022-11-05T01:14:13.433Z,79.48
2022-11-05T01:16:41.879Z,79.83
2022-11-05T01:19:12.918Z,79.71
2022-11-05T01:21:40.421Z,79.58
2022-11-05T01:24:08.540Z,79.78
2022-11-05T01:26:36.179Z,79.69
2022-11-05T01:29:03.788Z,80.07
2022-11-05T01:31:31.274Z,80.17
2022-11-05T01:34:02.879Z,79.74
2022-11-05T01:36:32.934Z,79.33
2022-11-05T01:39:02.148Z,79.09
2022-11-05T01:41:29.591Z,79.60
2022-11-05T01:44:02.035Z,79.72
2022-11-05T01:46:40.718Z,79.89
2022-11-05T01:49:25.459Z,79.36
2022-11-05T01:51:53.351Z,79.16
2022-11-05T01:54:27.749Z,79.09
2022-11-05T01:57:04.295Z,79.37
2022-11-05T01:59:39.901Z,78.55
2022-11-05T02:02:08.964Z,79.57
2022-11-05T02:04:54.742Z,79.48
2022-11-05T02:07:24.589Z,80.18
2022-11-05T02:10:11.082Z,79.95
2022-11-05T02:12:42.288Z,79.39
2022-11-05T02:16:06.794Z,79.88
2022-11-05T02:19:24.510Z,79.68
2022-11-05T02:22:35.065Z,80.31
2022-11-05T02:25:13.200Z,80.29
2022-11-05T02:28:21.825Z,80.17
2022-11-05T02:31:26.226Z,79.22
2022-11-05T02:34:20.806Z,79.58
2022-11-05T02:37:07.444Z,79.29
2022-11-05T02:40:22.515Z,78.55
2022-11-05T02:43:15.515Z,79.02
2022-11-05T02:46:21.481Z,78.24
2022-11-05T02:49:17.443Z,78.19
2022-11-05T02:51:59.536Z,78.39
2022-11-05T02:54:58.644Z,78.93
2022-11-05T02:57:30.846Z,78.64
2022-11-05T03:00:08.785Z,79.23
2022-11-05T03:02:36.637Z,79.17
2022-11-05T03:05:05.186Z,79.09
2022-11-05T03:07:55.360Z,79.40
2022-11-05T03:10:47.357Z,78.86
2022-11-05T03:13:39.882Z,78.39
2022-11-05T03:16:22.099Z,78.36
2022-11-05T03:19:42.241Z,78.64
2022-11-05T03:22:20.726Z,78.60
2022-11-05T03:24:57.694Z,77.29
2022-11-05T03:27:31.886Z,77.88
2022-11-05T03:30:08.575Z,78.28
2022-11-05T03:32:42.332Z,77.87
2022-11-05T03:35:21.135Z,78.49
2022-11-05T03:37:53.035Z,78.44
2022-11-05T03:40:23.624Z,78.40
2022-11-05T03:42:58.402Z,78.46
2022-11-05T03:45:57.832Z,77.37
2022-11-05T03:48:29.322Z,77.54
2022-11-05T03:51:30.908Z,78.10
2022-11-05T03:54:03.770Z,77.86
2022-11-05T03:56:39.494Z,77.86
2022-11-05T03:59:10.261Z,77.42
2022-11-05T04:01:39.482Z,76.97
2022-11-05T04:04:07.866Z,77.55
2022-11-05T04:06:53.939Z,76.99
2022-11-05T04:09:40.213Z,77.21
2022-11-05T04:12:27.422Z,76.60
2022-11-05T04:14:54.908Z,77.32
2022-11-05T04:17:22.449Z,77.78
2022-11-05T04:20:08.337Z,78.52
2022-11-05T04:22:55.311Z,77.90
2022-11-05T04:25:23.770Z,79.06
2022-11-05T04:27:51.343Z,79.11
2022-11-05T04:30:20.512Z,79.11
2022-11-05T04:33:09.609Z,78.74
2022-11-05T04:35:46.541Z,79.08
2022-11-05T04:38:18.306Z,79.06
2022-11-05T04:40:46.806Z,79.61
2022-11-05T04:43:17.420Z,78.79
2022-11-05T04:45:46.021Z,78.15
2022-11-05T04:48:13.803Z,77.81
2022-11-05T04:50:41.369Z,76.49
2022-11-05T04:53:09.216Z,76.49
2022-11-05T04:55:36.970Z,78.47
2022-11-05T04:58:04.884Z,78.07
2022-11-05T05:00:32.647Z,76.91
2022-11-05T05:03:00.660Z,78.58
2022-11-05T05:05:28.203Z,77.62
2022-11-05T05:07:55.717Z,77.41
2022-11-05T05:10:23.223Z,77.88
2022-11-05T05:12:50.704Z,78.37
2022-11-05T05:15:18.373Z,77.24
2022-11-05T05:17:53.314Z,77.51
2022-11-05T05:20:39.478Z,78.55
2022-11-05T05:23:06.961Z,77.68
2022-11-05T05:25:34.543Z,78.30
2022-11-05T05:28:02.047Z,77.30
2022-11-05T05:30:29.522Z,77.50
2022-11-05T05:32:57.048Z,77.48
2022-11-05T05:35:24.486Z,78.37
2022-11-05T05:37:56.844Z,78.79
2022-11-05T05:40:25.257Z,78.65
2022-11-05T05:42:56.268Z,79.19
2022-11-05T05:45:23.776Z,78.83
2022-11-05T05:47:51.221Z,79.48
2022-11-05T05:50:18.663Z,78.00
2022-11-05T05:52:46.265Z,78.42
2022-11-05T05:55:13.849Z,78.84
2022-11-05T05:57:41.337Z,78.91
2022-11-05T06:00:09.825Z,78.10
2022-11-05T06:02:37.351Z,79.27
2022-11-05T06:05:05.310Z,79.13
2022-11-05T06:07:36.979Z,79.16
2022-11-05T06:10:06.359Z,79.42
2022-11-05T06:12:34.144Z,78.83
2022-11-05T06:15:01.724Z,79.32
2022-11-05T06:17:29.134Z,79.29
2022-11-05T06:19:56.844Z,79.34
2022-11-05T06:22:25.132Z,79.58
2022-11-05T06:24:57.735Z,79.01
2022-11-05T06:30:27.783Z,79.27
2022-11-05T06:32:55.986Z,79.18
2022-11-05T06:35:23.527Z,79.16
2022-11-05T06:37:51.511Z,79.54
2022-11-05T06:40:19.196Z,79.71
2022-11-05T06:43:30.848Z,79.54
2022-11-05T06:46:03.280Z,79.54
2022-11-05T06:48:30.844Z,78.97
2022-11-05T06:50:58.965Z,79.13
2022-11-05T06:53:26.668Z,79.18
2022-11-05T06:55:55.363Z,79.40
2022-11-05T06:58:26.933Z,78.36
2022-11-05T07:00:54.767Z,79.44
2022-11-05T07:03:22.812Z,79.11
2022-11-05T07:05:51.084Z,79.42
2022-11-05T07:08:22.482Z,79.80
2022-11-05T07:13:34.754Z,79.67
2022-11-05T07:16:02.289Z,79.65
2022-11-05T07:18:30.110Z,80.12
2022-11-05T07:21:00.578Z,80.17
2022-11-05T07:23:28.927Z,79.15
2022-11-05T07:25:57.130Z,79.61
2022-11-05T07:28:24.857Z,80.48
2022-11-05T07:30:53.716Z,80.15
2022-11-05T07:33:21.455Z,80.09
2022-11-05T07:35:49.005Z,79.93
2022-11-05T07:38:18.395Z,80.82
2022-11-05T07:40:45.803Z,80.15
2022-11-05T07:43:13.477Z,80.58
2022-11-05T07:45:41.384Z,80.38
2022-11-05T07:48:09.742Z,80.84
2022-11-05T07:50:38.446Z,81.33
2022-11-05T08:02:14.091Z,80.89
2022-11-05T08:04:45.487Z,81.97
2022-11-05T08:07:13.880Z,80.75
2022-11-05T08:09:42.293Z,80.99
2022-11-05T08:12:14.329Z,82.37
2022-11-05T08:17:48.845Z,80.57
2022-11-05T15:51:16.957Z,70.78
2022-11-05T16:11:43.956Z,69.63
2022-11-05T16:14:49.679Z,70.34
